CYDB

Details ICAO CYDB (YDB)
Name BURWASH
Region Canada
Timezone America/Whitehorse (UTC-8.0)
Plans Departing 7
Arriving 8
Stats Elevation 2,647 ft / 807 m (AMSL)
Location 61.371111° -139.040558°
Runways 1
Magnetic Variation 19.235° E
Sunrise 2017-12-14 18:28:05 UTC / 2017-12-14 10:28:05 Local
Sunset 2017-12-14 23:56:45 UTC / 2017-12-14 15:56:45 Local
Advertisement - Login to hide

Runways

ID Width Length Bearing (true) Bearing (mag) Surface Threshold Offset Overrun Length
10 100 ft / 30 m 4,986 ft / 1,520 m 127.81° 108.58° Gravel 0 ft / 0 m 0 ft / 0 m
28 100 ft / 30 m 4,986 ft / 1,520 m 307.83° 288.60° Gravel 0 ft / 0 m 0 ft / 0 m

Map

Weather


0- 5 10 15 20 25 30 35+ Temperature / ° C

Clouds and Precipitation
Forecast for 2017-12-15 06:00 UTC. Updated 2 hours ago

Ground ~20,000 ft ~40,000 ft Winds

METAR

CYDB 150600Z AUTO 00000KT 9SM OVC060 M04/M05 A2941 RMK SLP007

TAF

TAF TAF CYDB 150538Z 1506/1518 28005KT P6SM SCT020 OVC050 TEMPO 1506/1512 3SM -SHSN BR BKN020 OVC050 FM151200 VRB03KT P6SM SCT050 BKN120 FM151600 13006KT P6SM SCT120 RMK FCST BASED ON AUTO OBS. NXT FCST BY 151200Z

Frequencies

Recorded 128.70 MHz AWOS
Unicom 122.10 MHz MANDTORY FREQUENCY
Warning: Do not use this data for real-world aviation or navigation. No guarantee of current accuracy is given.